Central Sonoma County Latest

29 Stations

15 Minute Data | America/Los_Angeles
as of 5/16/22 12:25 PM PDT
Station Date Time Temp (°F) RH (%) Dew Pt (°F) Wind Spd (mph) Wind Dir (°) Wind Gust (mph) Latest Rain (In) Daily Rain (In) Daily Min Temp (°F) Daily Max Temp (°F)
Healdsburg-South (Sodini) 5/16/22 1215 76.2   5.7 31   8 43.4   10.9 8.1 NW | 315 14.5   0.3 0.00 0.00 44.8   5.3 77.5   5.2
Windsor-NW (Ranch 8) 5/16/22 1215 75.1   4.0 43   8 51.0   8.5 2.0 NW | 309 7.7   2.5 0.00 0.00 47.7   4.5 76.5   4.8
Windsor-East (Ranch 16) 5/16/22 1215 73.6   3.9 43   5 49.7   6.6 2.9 NW | 309 6.8   2.0 0.00 0.00 44.9   3.6 74.6   3.1
Mark West-North (Ranch 14) 5/16/22 1215 73.6   3.2 42   7 48.9   7.0 1.7 ESE | 105 4.2   4.2 0.00 0.00 49.1   1.8 74.9   3.4
Windsor-SE (Silk Rd) 5/16/22 1215 73.4   4.7 46   4 51.4   6.6 2.8 SSE | 148 6.9   1.4 0.00 0.00 42.9   4.8 73.8   4.8
Fulton-NW (Ranch 5) 5/16/22 1215 72.3   4.8 46   4 50.5   6.5 3.7 SSW | 202 8.1   2.8 0.00 0.00 45.6   3.5 73.3   4.8
Windsor-South (Laughlin Rd) 5/16/22 1215 74.3   3.1 - - - - - 0.00 0.00 47.4   2.0 74.8   4.0
Fulton-SE (Barnes Rd) 5/16/22 1215 72.2   3.6 49   4 52.0   5.5 0.0 N | 0 0.0   0.2 0.00 0.00 46.0   3.8 73.3   3.3
Fulton-SW (Ranch 21) 5/16/22 1215 72.6   3.0 46   6 50.5   5.8 3.7 S | 184 8.4   3.9 0.00 0.00 47.6   1.9 73.6   2.6
Santa Rosa-NW (Goldfields) 5/16/22 1215 72.9   3.5 47   4 51.5   5.5 2.6 ESE | 102 9.9   1.5 0.00 0.00 48.3   1.1 74.2   2.7
NW Santa Rosa (Piner Road) 5/16/22 1215 71.4   4.0 51   5 52.6   6.0 2.4 ESE | 106 6.4   2.2 0.00 0.00 46.5   1.4 72.3   3.5
River Rd South (Denner Ranch) 5/16/22 1215 72.5   4.5 47   5 51.3   6.7 3.0 SW | 219 7.7   3.7 - - 44.1   3.7 73.3   4.6
West Santa Rosa (Hawk's Roost) 5/16/22 1215 72.5   3.8 48   6 51.6   6.6 2.4 NNW | 330 5.1   2.4 0.00 0.00 46.7   1.5 73.3   3.6
Guerneville Rd (Prokopakis) 5/16/22 1215 73.2   3.6 47   5 52.0   6.0 - - - 0.00 0.00 45.4   4.3 74.2   4.2
Guerneville Rd West (Balletto) 5/16/22 1215 72.3   4.2 52   4 53.6   6.2 3.1 S | 185 7.1   1.9 0.00 0.00 45.0   3.1 72.9   3.9
Guerneville Rd East (Rich Ranch) 5/16/22 1215 72.7   3.9 47   4 51.2   6.0 - - - - - 45.6   2.2 73.5   4.2
Occidental Rd (Sebastopol) 5/16/22 1215 72.1   4.4 100   0 72.2   4.4 4.4 SSE | 168 9.4   1.3 0.00 0.00 43.6   3.0 72.9   4.7
Lower Westside Rd (Ranch 12) 5/16/22 1215 73.4   5.3 48   0 52.2   4.8 3.8 SE | 139 8.0   0.4 0.00 0.00 44.5   4.9 74.0   5.0
Guerneville (Laughlin Rd) 5/16/22 1215 76.9   5.3 34   3 46.6   7.1 5.1 W | 276 11.3   1.9 0.00 0.00 42.3   3.7 77.3   5.8
Korbel (Winery) 5/16/22 1215 75.8   6.4 40   1 49.7   6.7 3.9 SSE | 153 8.9   1.7 0.00 0.00 44.0   4.2 76.4   6.2
Forestville (Shone Farms) 5/16/22 1215 72.3   5.2 50   2 52.4   6.2 2.6 ESE | 114 6.9   1.8 0.00 0.00 46.8   2.0 74.5   4.9
Forestville-NE (Ranch 30) 5/16/22 1215 74.2   4.6 50   2 54.2   5.4 3.7 S | 175 7.3   4.1 0.00 0.00 44.5   3.5 75.8   3.7
Green Valley Vineyard 5/16/22 1215 71.5   6.3 50   0 51.7   5.8 2.5 E | 87 7.7   1.1 0.00 0.00 47.5   2.6 73.1   5.7
Graton-West (Dutton Ranch) 5/16/22 1215 73.4   5.6 49   3 53.0   3.6 2.6 S | 174 6.3   2.0 0.00 0.00 43.3   4.0 74.7   5.6
Graton-South (Mill Station Rd) 5/16/22 1215 70.3   5.0 52   1 52.0   4.2 2.2 SE | 146 5.7   4.7 0.00 0.00 42.9   5.2 71.1   6.2
Occidental (Horseshoe Bend) 5/16/22 1215 70.8   1.0 51   11 51.6   4.2 - - - 0.00 0.00 46.7   1.4 71.7   0.2
Sexton Valley (Jacqueline's Blk) 5/16/22 1215 71.0   3.8 57   1 54.9   3.9 2.1 S | 173 5.0   6.7 0.00 0.00 44.2   2.4 72.0   4.1
Sebastopol Hills (Burnside Rd) 5/16/22 1215 68.6   3.7 60   1 54.2   3.8 2.6 SE | 140 7.8   4.6 0.00 0.00 49.4   1.3 69.0   5.5
Seaview/Fort Ross (Hirsch) 5/16/22 1215 65.1   0.1 57   15 49.5   6.4 5.2 NNW | 344 11.3   4.1 0.00 0.00 47.3   6.5 66.2   0.9
Max     76.9 100 72.2 8.1 - 14.5 0.00 0.00 49.4 77.5
Avg     72.6 49 52.0 3.2 - 7.5 0.00 - - -
Min     65.1 31 43.4 0.0 - 0.0 0.00 0.00 42.3 66.2